sensor_id;sensor_type;location;lat;lon;timestamp;P1;durP1;ratioP1;P2;durP2;ratioP2
9914;SDS011;4996;48.746;9.174;2023-05-16T00:01:09;13.43;;;10.13;;
9914;SDS011;4996;48.746;9.174;2023-05-16T00:03:37;12.90;;;9.90;;
9914;SDS011;4996;48.746;9.174;2023-05-16T00:06:03;13.20;;;9.67;;
9914;SDS011;4996;48.746;9.174;2023-05-16T00:08:34;15.60;;;10.73;;
9914;SDS011;4996;48.746;9.174;2023-05-16T00:11:00;16.40;;;10.83;;
9914;SDS011;4996;48.746;9.174;2023-05-16T00:13:28;14.77;;;10.70;;
9914;SDS011;4996;48.746;9.174;2023-05-16T00:15:56;12.90;;;9.67;;
9914;SDS011;4996;48.746;9.174;2023-05-16T00:18:26;14.67;;;10.57;;
9914;SDS011;4996;48.746;9.174;2023-05-16T00:20:55;19.27;;;10.83;;
9914;SDS011;4996;48.746;9.174;2023-05-16T00:23:21;15.37;;;10.70;;
9914;SDS011;4996;48.746;9.174;2023-05-16T00:25:49;13.27;;;11.47;;
9914;SDS011;4996;48.746;9.174;2023-05-16T00:28:17;14.30;;;10.23;;
9914;SDS011;4996;48.746;9.174;2023-05-16T00:30:46;14.23;;;12.30;;
9914;SDS011;4996;48.746;9.174;2023-05-16T00:33:20;15.43;;;11.73;;
9914;SDS011;4996;48.746;9.174;2023-05-16T00:35:48;16.00;;;11.37;;
9914;SDS011;4996;48.746;9.174;2023-05-16T00:38:14;19.97;;;15.10;;
9914;SDS011;4996;48.746;9.174;2023-05-16T00:40:40;16.90;;;13.17;;
9914;SDS011;4996;48.746;9.174;2023-05-16T00:43:08;19.50;;;14.67;;
9914;SDS011;4996;48.746;9.174;2023-05-16T00:45:33;21.00;;;15.20;;
9914;SDS011;4996;48.746;9.174;2023-05-16T00:47:59;22.00;;;16.70;;
9914;SDS011;4996;48.746;9.174;2023-05-16T00:50:25;21.53;;;15.77;;
9914;SDS011;4996;48.746;9.174;2023-05-16T00:52:53;20.07;;;15.80;;
9914;SDS011;4996;48.746;9.174;2023-05-16T00:55:22;19.13;;;14.40;;
9914;SDS011;4996;48.746;9.174;2023-05-16T00:57:51;20.33;;;16.10;;
9914;SDS011;4996;48.746;9.174;2023-05-16T01:00:27;21.30;;;15.70;;
9914;SDS011;4996;48.746;9.174;2023-05-16T01:02:53;25.03;;;17.40;;
9914;SDS011;4996;48.746;9.174;2023-05-16T01:05:19;23.70;;;17.40;;
9914;SDS011;4996;48.746;9.174;2023-05-16T01:07:45;25.03;;;17.00;;
9914;SDS011;4996;48.746;9.174;2023-05-16T01:10:16;25.00;;;16.97;;
9914;SDS011;4996;48.746;9.174;2023-05-16T01:12:47;30.00;;;17.80;;
9914;SDS011;4996;48.746;9.174;2023-05-16T01:15:43;24.50;;;16.83;;
9914;SDS011;4996;48.746;9.174;2023-05-16T01:18:30;27.20;;;18.47;;
9914;SDS011;4996;48.746;9.174;2023-05-16T01:21:14;21.70;;;16.27;;
9914;SDS011;4996;48.746;9.174;2023-05-16T01:26:27;24.27;;;17.40;;
9914;SDS011;4996;48.746;9.174;2023-05-16T01:28:57;30.50;;;19.43;;
9914;SDS011;4996;48.746;9.174;2023-05-16T01:31:23;32.97;;;20.10;;
9914;SDS011;4996;48.746;9.174;2023-05-16T01:33:49;29.73;;;19.70;;
9914;SDS011;4996;48.746;9.174;2023-05-16T01:36:18;31.87;;;18.40;;
9914;SDS011;4996;48.746;9.174;2023-05-16T01:47:15;31.57;;;20.17;;
9914;SDS011;4996;48.746;9.174;2023-05-16T01:52:31;30.73;;;21.57;;
9914;SDS011;4996;48.746;9.174;2023-05-16T01:55:05;31.17;;;21.37;;
9914;SDS011;4996;48.746;9.174;2023-05-16T01:57:38;29.80;;;20.17;;
9914;SDS011;4996;48.746;9.174;2023-05-16T02:00:09;30.93;;;22.10;;
9914;SDS011;4996;48.746;9.174;2023-05-16T02:02:36;34.10;;;22.67;;
9914;SDS011;4996;48.746;9.174;2023-05-16T02:05:01;37.63;;;23.70;;
9914;SDS011;4996;48.746;9.174;2023-05-16T02:07:30;35.50;;;23.30;;
9914;SDS011;4996;48.746;9.174;2023-05-16T02:09:59;37.03;;;22.77;;
9914;SDS011;4996;48.746;9.174;2023-05-16T02:12:28;37.10;;;23.13;;
9914;SDS011;4996;48.746;9.174;2023-05-16T02:14:54;38.80;;;23.10;;
9914;SDS011;4996;48.746;9.174;2023-05-16T02:17:20;39.43;;;22.10;;
9914;SDS011;4996;48.746;9.174;2023-05-16T02:19:48;42.20;;;23.67;;
9914;SDS011;4996;48.746;9.174;2023-05-16T02:22:14;32.10;;;22.27;;
9914;SDS011;4996;48.746;9.174;2023-05-16T02:24:40;31.67;;;19.90;;
9914;SDS011;4996;48.746;9.174;2023-05-16T02:27:08;36.20;;;21.83;;
9914;SDS011;4996;48.746;9.174;2023-05-16T02:29:39;36.00;;;22.67;;
9914;SDS011;4996;48.746;9.174;2023-05-16T02:32:05;36.60;;;22.53;;
9914;SDS011;4996;48.746;9.174;2023-05-16T02:34:31;40.70;;;22.90;;
9914;SDS011;4996;48.746;9.174;2023-05-16T02:36:59;33.97;;;22.47;;
9914;SDS011;4996;48.746;9.174;2023-05-16T02:39:24;38.33;;;23.67;;
9914;SDS011;4996;48.746;9.174;2023-05-16T02:41:52;41.70;;;22.73;;
9914;SDS011;4996;48.746;9.174;2023-05-16T02:44:20;37.80;;;23.77;;
9914;SDS011;4996;48.746;9.174;2023-05-16T02:46:46;47.20;;;27.10;;
9914;SDS011;4996;48.746;9.174;2023-05-16T02:49:14;36.67;;;22.90;;
9914;SDS011;4996;48.746;9.174;2023-05-16T02:51:41;42.30;;;23.30;;
9914;SDS011;4996;48.746;9.174;2023-05-16T02:54:09;37.60;;;24.30;;
9914;SDS011;4996;48.746;9.174;2023-05-16T02:56:37;38.07;;;22.77;;
9914;SDS011;4996;48.746;9.174;2023-05-16T02:59:03;36.00;;;21.40;;
9914;SDS011;4996;48.746;9.174;2023-05-16T03:01:29;39.37;;;24.23;;
9914;SDS011;4996;48.746;9.174;2023-05-16T03:03:54;43.53;;;26.27;;
9914;SDS011;4996;48.746;9.174;2023-05-16T03:06:20;37.33;;;22.57;;
9914;SDS011;4996;48.746;9.174;2023-05-16T03:08:49;39.50;;;23.17;;
9914;SDS011;4996;48.746;9.174;2023-05-16T03:11:15;43.93;;;24.67;;
9914;SDS011;4996;48.746;9.174;2023-05-16T03:13:44;41.27;;;22.00;;
9914;SDS011;4996;48.746;9.174;2023-05-16T03:16:12;46.67;;;25.47;;
9914;SDS011;4996;48.746;9.174;2023-05-16T03:18:42;45.13;;;25.73;;
9914;SDS011;4996;48.746;9.174;2023-05-16T03:21:07;40.90;;;24.10;;
9914;SDS011;4996;48.746;9.174;2023-05-16T03:23:36;46.67;;;25.80;;
9914;SDS011;4996;48.746;9.174;2023-05-16T03:26:01;45.20;;;26.27;;
9914;SDS011;4996;48.746;9.174;2023-05-16T03:28:27;48.73;;;26.90;;
9914;SDS011;4996;48.746;9.174;2023-05-16T03:30:58;48.33;;;25.87;;
9914;SDS011;4996;48.746;9.174;2023-05-16T03:33:24;44.80;;;26.37;;
9914;SDS011;4996;48.746;9.174;2023-05-16T03:35:50;45.47;;;24.80;;
9914;SDS011;4996;48.746;9.174;2023-05-16T03:38:19;46.97;;;25.50;;
9914;SDS011;4996;48.746;9.174;2023-05-16T03:40:45;54.47;;;27.67;;
9914;SDS011;4996;48.746;9.174;2023-05-16T03:43:11;42.50;;;23.90;;
9914;SDS011;4996;48.746;9.174;2023-05-16T03:45:37;47.27;;;25.67;;
9914;SDS011;4996;48.746;9.174;2023-05-16T03:48:03;50.87;;;27.77;;
9914;SDS011;4996;48.746;9.174;2023-05-16T03:50:29;47.30;;;25.60;;
9914;SDS011;4996;48.746;9.174;2023-05-16T03:52:59;49.67;;;27.30;;
9914;SDS011;4996;48.746;9.174;2023-05-16T03:55:30;51.10;;;28.03;;
9914;SDS011;4996;48.746;9.174;2023-05-16T03:57:56;49.47;;;28.00;;
9914;SDS011;4996;48.746;9.174;2023-05-16T04:00:22;51.70;;;26.80;;
9914;SDS011;4996;48.746;9.174;2023-05-16T04:02:47;51.90;;;27.10;;
9914;SDS011;4996;48.746;9.174;2023-05-16T04:05:13;57.97;;;28.67;;
9914;SDS011;4996;48.746;9.174;2023-05-16T04:07:44;49.33;;;28.77;;
9914;SDS011;4996;48.746;9.174;2023-05-16T04:10:10;62.03;;;32.30;;
9914;SDS011;4996;48.746;9.174;2023-05-16T04:12:37;51.63;;;27.93;;
9914;SDS011;4996;48.746;9.174;2023-05-16T04:15:04;46.47;;;25.40;;
9914;SDS011;4996;48.746;9.174;2023-05-16T04:17:30;51.53;;;28.20;;
9914;SDS011;4996;48.746;9.174;2023-05-16T04:19:56;49.00;;;24.67;;
9914;SDS011;4996;48.746;9.174;2023-05-16T04:22:22;50.87;;;27.20;;
9914;SDS011;4996;48.746;9.174;2023-05-16T04:24:48;66.93;;;30.47;;
9914;SDS011;4996;48.746;9.174;2023-05-16T04:27:15;58.93;;;29.37;;
9914;SDS011;4996;48.746;9.174;2023-05-16T04:29:43;62.93;;;29.97;;
9914;SDS011;4996;48.746;9.174;2023-05-16T04:32:09;57.03;;;29.90;;
9914;SDS011;4996;48.746;9.174;2023-05-16T04:34:38;63.87;;;31.73;;
9914;SDS011;4996;48.746;9.174;2023-05-16T04:37:08;62.30;;;28.80;;
9914;SDS011;4996;48.746;9.174;2023-05-16T04:39:34;56.60;;;30.47;;
9914;SDS011;4996;48.746;9.174;2023-05-16T04:42:00;64.30;;;30.57;;
9914;SDS011;4996;48.746;9.174;2023-05-16T04:44:28;49.47;;;26.77;;
9914;SDS011;4996;48.746;9.174;2023-05-16T04:46:57;82.77;;;31.70;;
9914;SDS011;4996;48.746;9.174;2023-05-16T04:49:25;69.20;;;30.53;;
9914;SDS011;4996;48.746;9.174;2023-05-16T04:52:01;51.73;;;26.80;;
9914;SDS011;4996;48.746;9.174;2023-05-16T04:54:29;58.83;;;30.50;;
9914;SDS011;4996;48.746;9.174;2023-05-16T04:56:57;54.00;;;30.53;;
9914;SDS011;4996;48.746;9.174;2023-05-16T04:59:25;57.27;;;28.17;;
9914;SDS011;4996;48.746;9.174;2023-05-16T05:02:04;60.67;;;30.07;;
9914;SDS011;4996;48.746;9.174;2023-05-16T05:04:30;54.07;;;29.30;;
9914;SDS011;4996;48.746;9.174;2023-05-16T05:06:56;65.97;;;30.67;;
9914;SDS011;4996;48.746;9.174;2023-05-16T05:09:29;54.07;;;28.30;;
9914;SDS011;4996;48.746;9.174;2023-05-16T05:11:54;51.30;;;27.60;;
9914;SDS011;4996;48.746;9.174;2023-05-16T05:14:20;54.63;;;29.27;;
9914;SDS011;4996;48.746;9.174;2023-05-16T05:16:45;53.03;;;26.83;;
9914;SDS011;4996;48.746;9.174;2023-05-16T05:19:13;62.40;;;31.00;;
9914;SDS011;4996;48.746;9.174;2023-05-16T05:21:39;52.23;;;29.37;;
9914;SDS011;4996;48.746;9.174;2023-05-16T05:24:08;52.23;;;27.47;;
9914;SDS011;4996;48.746;9.174;2023-05-16T05:26:34;53.37;;;27.33;;
9914;SDS011;4996;48.746;9.174;2023-05-16T05:29:02;45.37;;;25.57;;
9914;SDS011;4996;48.746;9.174;2023-05-16T05:31:30;46.20;;;26.93;;
9914;SDS011;4996;48.746;9.174;2023-05-16T05:34:00;51.47;;;27.63;;
9914;SDS011;4996;48.746;9.174;2023-05-16T05:36:25;55.80;;;29.27;;
9914;SDS011;4996;48.746;9.174;2023-05-16T05:38:59;58.10;;;30.53;;
9914;SDS011;4996;48.746;9.174;2023-05-16T05:41:28;51.80;;;27.40;;
9914;SDS011;4996;48.746;9.174;2023-05-16T05:44:01;51.67;;;30.57;;
9914;SDS011;4996;48.746;9.174;2023-05-16T05:46:33;48.80;;;24.43;;
9914;SDS011;4996;48.746;9.174;2023-05-16T05:49:01;50.53;;;26.70;;
9914;SDS011;4996;48.746;9.174;2023-05-16T05:51:27;51.60;;;28.43;;
9914;SDS011;4996;48.746;9.174;2023-05-16T05:53:53;53.10;;;25.60;;
9914;SDS011;4996;48.746;9.174;2023-05-16T05:56:39;53.73;;;28.30;;
9914;SDS011;4996;48.746;9.174;2023-05-16T05:59:07;48.17;;;26.90;;
9914;SDS011;4996;48.746;9.174;2023-05-16T06:01:33;49.17;;;28.97;;
9914;SDS011;4996;48.746;9.174;2023-05-16T06:03:59;58.20;;;29.67;;
9914;SDS011;4996;48.746;9.174;2023-05-16T06:06:27;49.80;;;26.07;;
9914;SDS011;4996;48.746;9.174;2023-05-16T06:08:53;43.30;;;25.80;;
9914;SDS011;4996;48.746;9.174;2023-05-16T06:11:19;57.43;;;30.67;;
9914;SDS011;4996;48.746;9.174;2023-05-16T06:13:52;54.37;;;28.43;;
9914;SDS011;4996;48.746;9.174;2023-05-16T06:16:23;48.47;;;24.90;;
9914;SDS011;4996;48.746;9.174;2023-05-16T06:18:49;52.33;;;30.43;;
9914;SDS011;4996;48.746;9.174;2023-05-16T06:21:15;53.93;;;28.27;;
9914;SDS011;4996;48.746;9.174;2023-05-16T06:23:41;50.07;;;28.70;;
9914;SDS011;4996;48.746;9.174;2023-05-16T06:26:10;47.67;;;27.03;;
9914;SDS011;4996;48.746;9.174;2023-05-16T06:28:38;53.60;;;29.00;;
9914;SDS011;4996;48.746;9.174;2023-05-16T06:31:07;46.13;;;27.83;;
9914;SDS011;4996;48.746;9.174;2023-05-16T06:33:35;47.17;;;27.03;;
9914;SDS011;4996;48.746;9.174;2023-05-16T06:36:03;54.60;;;25.63;;
9914;SDS011;4996;48.746;9.174;2023-05-16T06:38:29;36.17;;;20.77;;
9914;SDS011;4996;48.746;9.174;2023-05-16T06:40:55;46.27;;;25.07;;
9914;SDS011;4996;48.746;9.174;2023-05-16T06:43:20;46.43;;;26.40;;
9914;SDS011;4996;48.746;9.174;2023-05-16T06:45:49;46.37;;;26.03;;
9914;SDS011;4996;48.746;9.174;2023-05-16T06:48:16;42.73;;;25.30;;
9914;SDS011;4996;48.746;9.174;2023-05-16T06:50:50;40.87;;;23.00;;
9914;SDS011;4996;48.746;9.174;2023-05-16T06:53:16;43.80;;;25.53;;
9914;SDS011;4996;48.746;9.174;2023-05-16T06:55:43;41.73;;;26.23;;
9914;SDS011;4996;48.746;9.174;2023-05-16T06:58:11;41.57;;;26.50;;
9914;SDS011;4996;48.746;9.174;2023-05-16T07:00:37;42.93;;;25.00;;
9914;SDS011;4996;48.746;9.174;2023-05-16T07:03:06;41.83;;;24.57;;
9914;SDS011;4996;48.746;9.174;2023-05-16T07:05:34;44.80;;;24.87;;
9914;SDS011;4996;48.746;9.174;2023-05-16T07:08:03;48.97;;;26.40;;
9914;SDS011;4996;48.746;9.174;2023-05-16T07:10:29;41.90;;;24.37;;
9914;SDS011;4996;48.746;9.174;2023-05-16T07:12:55;42.30;;;24.50;;
9914;SDS011;4996;48.746;9.174;2023-05-16T07:15:25;40.03;;;22.30;;
9914;SDS011;4996;48.746;9.174;2023-05-16T07:17:51;38.73;;;22.23;;
9914;SDS011;4996;48.746;9.174;2023-05-16T07:20:17;35.63;;;20.90;;
9914;SDS011;4996;48.746;9.174;2023-05-16T07:22:45;39.63;;;23.77;;
9914;SDS011;4996;48.746;9.174;2023-05-16T07:25:11;38.60;;;21.00;;
9914;SDS011;4996;48.746;9.174;2023-05-16T07:27:40;38.57;;;21.10;;
9914;SDS011;4996;48.746;9.174;2023-05-16T07:30:10;30.73;;;18.60;;
9914;SDS011;4996;48.746;9.174;2023-05-16T07:32:39;28.67;;;19.27;;
9914;SDS011;4996;48.746;9.174;2023-05-16T07:35:05;31.43;;;17.77;;
9914;SDS011;4996;48.746;9.174;2023-05-16T07:37:36;25.00;;;15.93;;
9914;SDS011;4996;48.746;9.174;2023-05-16T07:40:06;19.10;;;13.67;;
9914;SDS011;4996;48.746;9.174;2023-05-16T07:42:32;21.70;;;14.20;;
9914;SDS011;4996;48.746;9.174;2023-05-16T07:45:01;22.37;;;13.33;;
9914;SDS011;4996;48.746;9.174;2023-05-16T07:47:27;18.70;;;13.63;;
9914;SDS011;4996;48.746;9.174;2023-05-16T07:49:53;16.40;;;11.40;;
9914;SDS011;4996;48.746;9.174;2023-05-16T07:52:21;14.30;;;10.20;;
9914;SDS011;4996;48.746;9.174;2023-05-16T07:54:50;18.13;;;11.27;;
9914;SDS011;4996;48.746;9.174;2023-05-16T07:57:17;16.57;;;10.90;;
9914;SDS011;4996;48.746;9.174;2023-05-16T07:59:44;13.53;;;10.73;;
9914;SDS011;4996;48.746;9.174;2023-05-16T08:02:10;13.77;;;9.70;;
9914;SDS011;4996;48.746;9.174;2023-05-16T08:04:36;15.40;;;9.77;;
9914;SDS011;4996;48.746;9.174;2023-05-16T08:07:05;17.63;;;10.70;;
9914;SDS011;4996;48.746;9.174;2023-05-16T08:09:34;15.73;;;10.50;;
9914;SDS011;4996;48.746;9.174;2023-05-16T08:12:05;11.10;;;9.30;;
9914;SDS011;4996;48.746;9.174;2023-05-16T08:14:31;14.33;;;9.67;;
9914;SDS011;4996;48.746;9.174;2023-05-16T08:16:57;16.07;;;10.60;;
9914;SDS011;4996;48.746;9.174;2023-05-16T08:19:26;14.50;;;10.33;;
9914;SDS011;4996;48.746;9.174;2023-05-16T08:21:53;23.53;;;10.70;;
9914;SDS011;4996;48.746;9.174;2023-05-16T08:24:21;14.77;;;11.20;;
9914;SDS011;4996;48.746;9.174;2023-05-16T08:26:47;16.50;;;12.30;;
9914;SDS011;4996;48.746;9.174;2023-05-16T08:29:16;14.53;;;10.93;;
9914;SDS011;4996;48.746;9.174;2023-05-16T08:31:44;16.40;;;12.20;;
9914;SDS011;4996;48.746;9.174;2023-05-16T08:34:09;15.47;;;11.07;;
9914;SDS011;4996;48.746;9.174;2023-05-16T08:36:38;15.73;;;11.77;;
9914;SDS011;4996;48.746;9.174;2023-05-16T08:39:09;15.30;;;12.23;;
9914;SDS011;4996;48.746;9.174;2023-05-16T08:41:37;16.07;;;11.93;;
9914;SDS011;4996;48.746;9.174;2023-05-16T08:44:03;17.23;;;12.83;;
9914;SDS011;4996;48.746;9.174;2023-05-16T08:46:31;21.50;;;13.20;;
9914;SDS011;4996;48.746;9.174;2023-05-16T08:49:02;18.30;;;12.60;;
9914;SDS011;4996;48.746;9.174;2023-05-16T08:51:32;21.17;;;12.20;;
9914;SDS011;4996;48.746;9.174;2023-05-16T08:54:10;15.57;;;11.93;;
9914;SDS011;4996;48.746;9.174;2023-05-16T08:56:37;20.00;;;12.53;;
9914;SDS011;4996;48.746;9.174;2023-05-16T08:59:05;19.10;;;13.07;;
9914;SDS011;4996;48.746;9.174;2023-05-16T09:01:34;20.60;;;14.00;;
9914;SDS011;4996;48.746;9.174;2023-05-16T09:04:00;19.47;;;13.93;;
9914;SDS011;4996;48.746;9.174;2023-05-16T09:06:30;18.17;;;13.27;;
9914;SDS011;4996;48.746;9.174;2023-05-16T09:08:58;15.63;;;11.10;;
9914;SDS011;4996;48.746;9.174;2023-05-16T09:11:34;22.77;;;14.90;;
9914;SDS011;4996;48.746;9.174;2023-05-16T09:14:05;20.83;;;14.90;;
9914;SDS011;4996;48.746;9.174;2023-05-16T09:16:35;21.30;;;14.80;;
9914;SDS011;4996;48.746;9.174;2023-05-16T09:19:04;21.83;;;14.83;;
9914;SDS011;4996;48.746;9.174;2023-05-16T09:21:33;24.70;;;16.23;;
9914;SDS011;4996;48.746;9.174;2023-05-16T09:24:06;25.63;;;14.27;;
9914;SDS011;4996;48.746;9.174;2023-05-16T09:26:36;19.13;;;13.70;;
9914;SDS011;4996;48.746;9.174;2023-05-16T09:29:12;23.13;;;15.17;;
9914;SDS011;4996;48.746;9.174;2023-05-16T09:31:38;26.47;;;18.37;;
9914;SDS011;4996;48.746;9.174;2023-05-16T09:34:09;25.00;;;16.13;;
9914;SDS011;4996;48.746;9.174;2023-05-16T09:36:36;29.10;;;15.90;;
9914;SDS011;4996;48.746;9.174;2023-05-16T09:39:02;22.00;;;16.20;;
9914;SDS011;4996;48.746;9.174;2023-05-16T09:41:32;29.00;;;17.50;;
9914;SDS011;4996;48.746;9.174;2023-05-16T09:44:02;27.07;;;17.97;;
9914;SDS011;4996;48.746;9.174;2023-05-16T09:46:32;29.43;;;18.43;;
9914;SDS011;4996;48.746;9.174;2023-05-16T09:48:58;26.20;;;17.27;;
9914;SDS011;4996;48.746;9.174;2023-05-16T09:51:24;26.13;;;17.77;;
9914;SDS011;4996;48.746;9.174;2023-05-16T09:53:53;29.27;;;16.90;;
9914;SDS011;4996;48.746;9.174;2023-05-16T09:56:22;32.47;;;18.37;;
9914;SDS011;4996;48.746;9.174;2023-05-16T09:58:51;28.00;;;15.57;;
9914;SDS011;4996;48.746;9.174;2023-05-16T10:01:16;30.77;;;19.57;;
9914;SDS011;4996;48.746;9.174;2023-05-16T10:03:43;29.77;;;19.57;;
9914;SDS011;4996;48.746;9.174;2023-05-16T10:06:08;29.17;;;18.90;;
9914;SDS011;4996;48.746;9.174;2023-05-16T10:08:36;29.10;;;17.73;;
9914;SDS011;4996;48.746;9.174;2023-05-16T10:11:05;24.27;;;16.03;;
9914;SDS011;4996;48.746;9.174;2023-05-16T10:13:32;21.50;;;11.63;;
9914;SDS011;4996;48.746;9.174;2023-05-16T10:15:59;30.80;;;19.07;;
9914;SDS011;4996;48.746;9.174;2023-05-16T10:18:30;29.80;;;17.43;;
9914;SDS011;4996;48.746;9.174;2023-05-16T10:20:57;26.87;;;16.53;;
9914;SDS011;4996;48.746;9.174;2023-05-16T10:23:28;26.67;;;16.20;;
9914;SDS011;4996;48.746;9.174;2023-05-16T10:25:56;26.03;;;16.97;;
9914;SDS011;4996;48.746;9.174;2023-05-16T10:28:22;26.53;;;17.57;;
9914;SDS011;4996;48.746;9.174;2023-05-16T10:30:49;27.90;;;18.90;;
9914;SDS011;4996;48.746;9.174;2023-05-16T10:33:16;21.67;;;14.07;;
9914;SDS011;4996;48.746;9.174;2023-05-16T10:35:43;25.20;;;15.90;;
9914;SDS011;4996;48.746;9.174;2023-05-16T10:38:10;31.27;;;17.77;;
9914;SDS011;4996;48.746;9.174;2023-05-16T10:40:38;28.60;;;16.97;;
9914;SDS011;4996;48.746;9.174;2023-05-16T10:43:05;28.10;;;17.57;;
9914;SDS011;4996;48.746;9.174;2023-05-16T10:45:32;23.50;;;14.20;;
9914;SDS011;4996;48.746;9.174;2023-05-16T10:48:04;24.57;;;16.67;;
9914;SDS011;4996;48.746;9.174;2023-05-16T10:53:10;24.90;;;16.83;;
9914;SDS011;4996;48.746;9.174;2023-05-16T11:01:45;24.40;;;14.23;;
9914;SDS011;4996;48.746;9.174;2023-05-16T11:06:25;22.87;;;14.47;;
9914;SDS011;4996;48.746;9.174;2023-05-16T11:09:07;20.90;;;13.87;;
9914;SDS011;4996;48.746;9.174;2023-05-16T11:11:44;25.43;;;15.10;;
9914;SDS011;4996;48.746;9.174;2023-05-16T11:16:50;19.77;;;12.63;;
9914;SDS011;4996;48.746;9.174;2023-05-16T11:19:27;19.70;;;12.23;;
9914;SDS011;4996;48.746;9.174;2023-05-16T11:24:29;22.27;;;13.23;;
9914;SDS011;4996;48.746;9.174;2023-05-16T11:26:56;21.80;;;13.80;;
9914;SDS011;4996;48.746;9.174;2023-05-16T11:29:23;18.00;;;11.80;;
9914;SDS011;4996;48.746;9.174;2023-05-16T11:31:52;16.60;;;10.33;;
9914;SDS011;4996;48.746;9.174;2023-05-16T11:34:17;24.20;;;12.27;;
9914;SDS011;4996;48.746;9.174;2023-05-16T11:36:43;25.40;;;10.87;;
9914;SDS011;4996;48.746;9.174;2023-05-16T11:39:09;21.97;;;10.40;;
9914;SDS011;4996;48.746;9.174;2023-05-16T11:41:36;17.50;;;10.10;;
9914;SDS011;4996;48.746;9.174;2023-05-16T11:44:02;16.80;;;8.70;;
9914;SDS011;4996;48.746;9.174;2023-05-16T11:46:29;13.50;;;7.47;;
9914;SDS011;4996;48.746;9.174;2023-05-16T11:48:55;17.90;;;10.63;;
9914;SDS011;4996;48.746;9.174;2023-05-16T11:51:21;17.60;;;10.73;;
9914;SDS011;4996;48.746;9.174;2023-05-16T11:53:47;16.60;;;10.70;;
9914;SDS011;4996;48.746;9.174;2023-05-16T11:56:16;15.90;;;9.03;;
9914;SDS011;4996;48.746;9.174;2023-05-16T11:58:42;11.60;;;8.33;;
9914;SDS011;4996;48.746;9.174;2023-05-16T12:01:08;14.57;;;8.83;;
9914;SDS011;4996;48.746;9.174;2023-05-16T12:03:34;13.60;;;9.20;;
9914;SDS011;4996;48.746;9.174;2023-05-16T12:06:00;16.13;;;10.03;;
9914;SDS011;4996;48.746;9.174;2023-05-16T12:08:26;16.30;;;10.10;;
9914;SDS011;4996;48.746;9.174;2023-05-16T12:10:52;12.10;;;8.27;;
9914;SDS011;4996;48.746;9.174;2023-05-16T12:13:18;16.93;;;10.00;;
9914;SDS011;4996;48.746;9.174;2023-05-16T12:15:45;15.00;;;8.87;;
9914;SDS011;4996;48.746;9.174;2023-05-16T12:18:11;17.30;;;11.23;;
9914;SDS011;4996;48.746;9.174;2023-05-16T12:20:37;17.23;;;9.50;;
9914;SDS011;4996;48.746;9.174;2023-05-16T12:23:05;13.33;;;9.63;;
9914;SDS011;4996;48.746;9.174;2023-05-16T12:25:35;15.90;;;9.23;;
9914;SDS011;4996;48.746;9.174;2023-05-16T12:28:03;15.50;;;9.23;;
9914;SDS011;4996;48.746;9.174;2023-05-16T12:30:32;18.70;;;10.70;;
9914;SDS011;4996;48.746;9.174;2023-05-16T12:33:01;13.30;;;9.60;;
9914;SDS011;4996;48.746;9.174;2023-05-16T12:35:32;15.23;;;9.40;;
9914;SDS011;4996;48.746;9.174;2023-05-16T12:37:59;10.57;;;6.90;;
9914;SDS011;4996;48.746;9.174;2023-05-16T12:40:29;9.40;;;6.93;;
9914;SDS011;4996;48.746;9.174;2023-05-16T12:42:55;11.83;;;6.23;;
9914;SDS011;4996;48.746;9.174;2023-05-16T12:45:21;9.13;;;5.90;;
9914;SDS011;4996;48.746;9.174;2023-05-16T12:47:47;9.60;;;6.57;;
9914;SDS011;4996;48.746;9.174;2023-05-16T12:50:13;8.20;;;4.90;;
9914;SDS011;4996;48.746;9.174;2023-05-16T12:52:51;6.30;;;4.83;;
9914;SDS011;4996;48.746;9.174;2023-05-16T12:55:18;8.47;;;5.50;;
9914;SDS011;4996;48.746;9.174;2023-05-16T12:57:45;9.93;;;5.93;;
9914;SDS011;4996;48.746;9.174;2023-05-16T13:00:12;5.63;;;4.10;;
9914;SDS011;4996;48.746;9.174;2023-05-16T13:02:39;8.60;;;5.10;;
9914;SDS011;4996;48.746;9.174;2023-05-16T13:05:05;7.30;;;5.87;;
9914;SDS011;4996;48.746;9.174;2023-05-16T13:07:31;7.13;;;5.53;;
9914;SDS011;4996;48.746;9.174;2023-05-16T13:09:57;7.13;;;5.47;;
9914;SDS011;4996;48.746;9.174;2023-05-16T13:12:23;6.60;;;5.00;;
9914;SDS011;4996;48.746;9.174;2023-05-16T13:14:51;8.53;;;5.53;;
9914;SDS011;4996;48.746;9.174;2023-05-16T13:17:17;6.90;;;5.33;;
9914;SDS011;4996;48.746;9.174;2023-05-16T13:19:42;6.07;;;5.47;;
9914;SDS011;4996;48.746;9.174;2023-05-16T13:22:08;4.47;;;3.57;;
9914;SDS011;4996;48.746;9.174;2023-05-16T13:24:33;7.90;;;4.53;;
9914;SDS011;4996;48.746;9.174;2023-05-16T13:26:59;6.77;;;5.00;;
9914;SDS011;4996;48.746;9.174;2023-05-16T13:29:24;5.53;;;4.20;;
9914;SDS011;4996;48.746;9.174;2023-05-16T13:31:50;5.23;;;4.63;;
9914;SDS011;4996;48.746;9.174;2023-05-16T13:34:16;5.70;;;4.27;;
9914;SDS011;4996;48.746;9.174;2023-05-16T13:36:41;4.90;;;3.93;;
9914;SDS011;4996;48.746;9.174;2023-05-16T13:39:07;5.83;;;3.90;;
9914;SDS011;4996;48.746;9.174;2023-05-16T13:41:32;5.97;;;4.37;;
9914;SDS011;4996;48.746;9.174;2023-05-16T13:44:02;6.30;;;3.93;;
9914;SDS011;4996;48.746;9.174;2023-05-16T13:46:27;6.40;;;2.70;;
9914;SDS011;4996;48.746;9.174;2023-05-16T13:48:53;4.00;;;3.47;;
9914;SDS011;4996;48.746;9.174;2023-05-16T13:51:18;3.33;;;3.03;;
9914;SDS011;4996;48.746;9.174;2023-05-16T13:53:44;5.83;;;4.00;;
9914;SDS011;4996;48.746;9.174;2023-05-16T13:56:09;4.93;;;3.17;;
9914;SDS011;4996;48.746;9.174;2023-05-16T13:58:35;3.10;;;2.80;;
9914;SDS011;4996;48.746;9.174;2023-05-16T14:01:00;5.43;;;3.13;;
9914;SDS011;4996;48.746;9.174;2023-05-16T14:03:26;5.00;;;3.03;;
9914;SDS011;4996;48.746;9.174;2023-05-16T14:05:51;9.07;;;3.30;;
9914;SDS011;4996;48.746;9.174;2023-05-16T14:08:17;6.00;;;2.67;;
9914;SDS011;4996;48.746;9.174;2023-05-16T14:10:42;12.43;;;5.03;;
9914;SDS011;4996;48.746;9.174;2023-05-16T14:13:08;5.57;;;3.93;;
9914;SDS011;4996;48.746;9.174;2023-05-16T14:15:33;3.60;;;2.93;;
9914;SDS011;4996;48.746;9.174;2023-05-16T14:17:59;4.53;;;3.37;;
9914;SDS011;4996;48.746;9.174;2023-05-16T14:20:25;5.83;;;3.73;;
9914;SDS011;4996;48.746;9.174;2023-05-16T14:22:50;5.00;;;3.70;;
9914;SDS011;4996;48.746;9.174;2023-05-16T14:25:16;3.23;;;2.97;;
9914;SDS011;4996;48.746;9.174;2023-05-16T14:27:42;4.03;;;3.23;;
9914;SDS011;4996;48.746;9.174;2023-05-16T14:30:07;7.33;;;3.33;;
9914;SDS011;4996;48.746;9.174;2023-05-16T14:32:33;4.43;;;2.90;;
9914;SDS011;4996;48.746;9.174;2023-05-16T14:34:59;5.10;;;3.20;;
9914;SDS011;4996;48.746;9.174;2023-05-16T14:37:24;6.10;;;4.07;;
9914;SDS011;4996;48.746;9.174;2023-05-16T14:39:50;3.20;;;2.90;;
9914;SDS011;4996;48.746;9.174;2023-05-16T14:42:16;4.33;;;3.73;;
9914;SDS011;4996;48.746;9.174;2023-05-16T14:44:42;4.10;;;3.13;;
9914;SDS011;4996;48.746;9.174;2023-05-16T14:47:08;3.97;;;3.50;;
9914;SDS011;4996;48.746;9.174;2023-05-16T14:49:34;4.27;;;2.67;;
9914;SDS011;4996;48.746;9.174;2023-05-16T14:52:00;4.10;;;3.43;;
9914;SDS011;4996;48.746;9.174;2023-05-16T14:54:25;4.00;;;3.53;;
9914;SDS011;4996;48.746;9.174;2023-05-16T14:56:51;4.00;;;3.47;;
9914;SDS011;4996;48.746;9.174;2023-05-16T14:59:16;5.43;;;3.00;;
9914;SDS011;4996;48.746;9.174;2023-05-16T15:01:42;5.57;;;3.50;;
9914;SDS011;4996;48.746;9.174;2023-05-16T15:04:07;2.60;;;2.30;;
9914;SDS011;4996;48.746;9.174;2023-05-16T15:06:33;4.17;;;2.70;;
9914;SDS011;4996;48.746;9.174;2023-05-16T15:08:59;2.40;;;1.90;;
9914;SDS011;4996;48.746;9.174;2023-05-16T15:11:25;5.63;;;2.07;;
9914;SDS011;4996;48.746;9.174;2023-05-16T15:13:50;3.30;;;2.70;;
9914;SDS011;4996;48.746;9.174;2023-05-16T15:16:16;3.20;;;2.43;;
9914;SDS011;4996;48.746;9.174;2023-05-16T15:18:42;4.73;;;2.20;;
9914;SDS011;4996;48.746;9.174;2023-05-16T15:21:07;5.70;;;2.37;;
9914;SDS011;4996;48.746;9.174;2023-05-16T15:23:33;3.23;;;1.83;;
9914;SDS011;4996;48.746;9.174;2023-05-16T15:25:59;3.60;;;2.03;;